Time;durP1;ratioP1;P1;durP2;ratioP2;P2;SDS_P1;SDS_P2;PMS_P1;PMS_P2;Temp;Humidity;BMP_temperature;BMP_pressure;BME280_temperature;BME280_humidity;BME280_pressure;Samples;Min_cycle;Max_cycle;Signal;HPM_P1;HPM_P2
2022/08/02 00:02:50;;;;;;;6.15;2.90;;;21.20;99.90;;;;;;6994646;28;20420;-91
2022/08/02 00:06:15;;;;;;;4.80;2.70;;;21.30;99.90;;;;;;6966649;28;20554;-90
2022/08/02 00:09:39;;;;;;;6.17;3.00;;;21.40;99.90;;;;;;6972115;28;20429;-91
2022/08/02 00:13:01;;;;;;;4.47;2.90;;;21.30;99.90;;;;;;6961232;28;20433;-92
2022/08/02 00:16:24;;;;;;;5.75;3.00;;;21.30;99.90;;;;;;6961958;28;20438;-91
2022/08/02 00:19:46;;;;;;;5.72;2.80;;;21.30;99.90;;;;;;6993022;28;20508;-90
2022/08/02 00:23:11;;;;;;;5.15;2.70;;;21.30;99.90;;;;;;6975570;28;20440;-93
2022/08/02 00:26:34;;;;;;;4.70;2.60;;;21.40;99.90;;;;;;6957968;28;20858;-90
2022/08/02 00:29:57;;;;;;;4.88;2.72;;;21.30;99.90;;;;;;6983122;28;20425;-90
2022/08/02 00:33:20;;;;;;;5.50;2.60;;;21.30;99.90;;;;;;6973713;28;20428;-93
2022/08/02 00:36:43;;;;;;;5.75;2.80;;;21.20;99.90;;;;;;6971088;28;20425;-91
2022/08/02 00:40:09;;;;;;;5.05;2.47;;;21.20;99.90;;;;;;6983543;28;20430;-92
2022/08/02 00:43:32;;;;;;;4.40;2.60;;;21.10;99.90;;;;;;6983585;28;20448;-91
2022/08/02 00:46:54;;;;;;;4.35;2.53;;;21.10;99.90;;;;;;6968896;28;20429;-88
2022/08/02 00:50:16;;;;;;;4.68;2.20;;;21.00;99.90;;;;;;6956495;28;20437;-88
2022/08/02 00:53:39;;;;;;;4.78;2.20;;;20.90;99.90;;;;;;6965239;28;20425;-90
2022/08/02 00:57:03;;;;;;;5.10;2.37;;;20.80;99.90;;;;;;6971952;28;20427;-90
2022/08/02 01:00:25;;;;;;;6.70;2.57;;;20.70;99.90;;;;;;6969476;28;20433;-89
2022/08/02 01:03:47;;;;;;;4.32;2.50;;;20.70;99.90;;;;;;6968573;28;20544;-90
2022/08/02 01:07:10;;;;;;;4.47;2.50;;;20.60;99.90;;;;;;6957339;28;20491;-88
2022/08/02 01:10:32;;;;;;;4.75;2.38;;;20.50;99.90;;;;;;6956013;28;20509;-87
2022/08/02 01:14:01;;;;;;;4.25;2.58;;;20.60;99.90;;;;;;6973657;28;20433;-92
2022/08/02 01:21:47;;;;;;;5.43;2.60;;;20.60;99.90;;;;;;6992458;28;20417;-93
2022/08/02 01:29:31;;;;;;;4.93;2.45;;;20.50;99.90;;;;;;6965320;28;20437;-90
2022/08/02 01:33:00;;;;;;;5.05;2.55;;;20.40;99.90;;;;;;6986136;28;20440;-92
2022/08/02 01:36:26;;;;;;;4.40;2.60;;;20.30;99.90;;;;;;6985181;28;20935;-89
2022/08/02 01:43:36;;;;;;;4.68;2.45;;;20.40;99.90;;;;;;6972669;28;20441;-91
2022/08/02 01:47:09;;;;;;;5.22;2.40;;;20.40;99.90;;;;;;6971768;28;20468;-91
2022/08/02 01:50:36;;;;;;;4.63;2.40;;;20.30;99.90;;;;;;6957741;28;20433;-89
2022/08/02 01:54:03;;;;;;;5.75;2.55;;;20.30;99.90;;;;;;6973392;28;20429;-89
2022/08/02 01:57:27;;;;;;;5.20;2.50;;;20.30;99.90;;;;;;6958895;28;20744;-91
2022/08/02 02:04:40;;;;;;;4.32;2.20;;;20.20;99.90;;;;;;6984842;28;20532;-90
2022/08/02 02:08:06;;;;;;;5.13;2.40;;;20.20;99.90;;;;;;6967789;28;20439;-90
2022/08/02 02:11:28;;;;;;;4.57;2.30;;;20.20;99.90;;;;;;6972885;28;20523;-89
2022/08/02 02:14:51;;;;;;;4.00;2.50;;;20.20;99.90;;;;;;6962222;28;20473;-86
2022/08/02 02:18:19;;;;;;;6.10;2.53;;;20.10;99.90;;;;;;6990160;28;20430;-88
2022/08/02 02:21:42;;;;;;;4.47;2.30;;;20.10;99.90;;;;;;6992741;28;20433;-88
2022/08/02 02:25:07;;;;;;;5.20;2.47;;;20.20;99.90;;;;;;6990911;28;20421;-89
2022/08/02 02:28:32;;;;;;;5.18;2.47;;;20.20;99.90;;;;;;6978774;28;21096;-89
2022/08/02 02:31:56;;;;;;;4.45;2.10;;;20.20;99.90;;;;;;6977667;28;20425;-90
2022/08/02 02:35:20;;;;;;;4.80;2.30;;;20.30;99.90;;;;;;6973005;28;20440;-91
2022/08/02 02:38:45;;;;;;;4.05;2.13;;;20.30;99.90;;;;;;6965199;28;20953;-90
2022/08/02 02:42:12;;;;;;;4.97;2.40;;;20.30;99.90;;;;;;6980105;28;20429;-93
2022/08/02 02:45:38;;;;;;;4.32;2.10;;;20.20;99.90;;;;;;6986638;28;20437;-92
2022/08/02 02:49:01;;;;;;;6.20;2.30;;;20.30;99.90;;;;;;6962864;28;20454;-91
2022/08/02 02:52:25;;;;;;;4.45;2.20;;;20.30;99.90;;;;;;6998190;28;20431;-87
2022/08/02 02:55:51;;;;;;;4.00;2.20;;;20.20;99.90;;;;;;6981503;28;20438;-91
2022/08/02 02:59:14;;;;;;;4.22;2.20;;;20.20;99.90;;;;;;7014641;28;20431;-92
2022/08/02 03:02:42;;;;;;;4.22;2.20;;;20.20;99.90;;;;;;6995112;28;20436;-93
2022/08/02 03:06:04;;;;;;;5.05;2.10;;;20.20;99.90;;;;;;7006826;28;20901;-87
2022/08/02 03:09:26;;;;;;;3.97;2.13;;;20.20;99.90;;;;;;6993225;28;20797;-87
2022/08/02 03:12:50;;;;;;;4.63;2.10;;;20.30;99.90;;;;;;6994783;28;20437;-84
2022/08/02 03:16:13;;;;;;;4.20;2.20;;;20.20;99.90;;;;;;6999109;28;20439;-86
2022/08/02 03:19:35;;;;;;;4.13;2.00;;;20.20;99.90;;;;;;6975819;28;20434;-85
2022/08/02 03:22:57;;;;;;;4.33;2.00;;;20.20;99.90;;;;;;6999921;28;20431;-84
2022/08/02 03:26:20;;;;;;;3.65;2.00;;;20.20;99.90;;;;;;6997987;28;20427;-84
2022/08/02 03:29:43;;;;;;;4.43;2.10;;;20.10;99.90;;;;;;7000576;28;20463;-84
2022/08/02 03:33:05;;;;;;;4.80;2.20;;;20.10;99.90;;;;;;7006065;28;20435;-86
2022/08/02 03:36:31;;;;;;;7.72;2.20;;;20.10;99.90;;;;;;6998230;28;20450;-83
2022/08/02 03:39:54;;;;;;;4.72;2.13;;;20.10;99.90;;;;;;6999909;28;20797;-87
2022/08/02 03:43:17;;;;;;;4.18;2.17;;;20.10;99.90;;;;;;6980151;28;20904;-86
2022/08/02 03:46:43;;;;;;;4.15;2.10;;;20.20;99.90;;;;;;6999598;28;20435;-84
2022/08/02 03:50:08;;;;;;;5.28;2.10;;;20.10;99.90;;;;;;7000720;28;20427;-85
2022/08/02 03:53:31;;;;;;;4.95;2.20;;;19.90;99.90;;;;;;7000336;28;20431;-83
2022/08/02 03:56:53;;;;;;;4.40;2.10;;;19.90;99.90;;;;;;7011854;28;20432;-84
2022/08/02 04:00:21;;;;;;;4.28;2.08;;;19.90;99.90;;;;;;7019855;28;20428;-84
2022/08/02 04:03:44;;;;;;;4.38;2.08;;;19.90;99.90;;;;;;7014021;28;20881;-85
2022/08/02 04:07:06;;;;;;;3.80;2.00;;;19.90;99.90;;;;;;7013761;28;20812;-83
2022/08/02 04:10:28;;;;;;;4.97;2.10;;;19.90;99.90;;;;;;7000198;28;20435;-85
2022/08/02 04:13:51;;;;;;;4.03;2.08;;;20.00;99.90;;;;;;7000595;28;20759;-85
2022/08/02 04:17:15;;;;;;;4.82;2.00;;;20.00;99.90;;;;;;7000452;28;20463;-86
2022/08/02 04:20:39;;;;;;;4.80;2.03;;;20.00;99.90;;;;;;7009207;28;20579;-85
2022/08/02 04:24:04;;;;;;;3.73;1.90;;;20.00;99.90;;;;;;7018254;28;20512;-85
2022/08/02 04:27:27;;;;;;;4.07;1.95;;;20.00;99.90;;;;;;7015837;28;20428;-84
2022/08/02 04:30:51;;;;;;;3.97;2.03;;;20.00;99.90;;;;;;7019798;28;20513;-85
2022/08/02 04:34:13;;;;;;;4.18;1.80;;;20.00;99.90;;;;;;7019064;28;20428;-85
2022/08/02 04:37:38;;;;;;;4.65;2.05;;;20.10;99.90;;;;;;7016264;28;20432;-85
2022/08/02 04:41:00;;;;;;;3.65;2.10;;;20.10;99.90;;;;;;7005063;28;20431;-86
2022/08/02 04:44:22;;;;;;;3.92;2.00;;;20.00;99.90;;;;;;7002383;28;20466;-86
2022/08/02 04:47:44;;;;;;;5.50;2.10;;;20.10;99.90;;;;;;7000423;28;20431;-85
2022/08/02 04:51:06;;;;;;;3.97;2.08;;;20.10;99.90;;;;;;6999385;28;20445;-85
2022/08/02 04:54:30;;;;;;;4.60;2.00;;;20.10;99.90;;;;;;6998572;28;20434;-87
2022/08/02 04:57:54;;;;;;;5.07;1.90;;;20.20;99.90;;;;;;7000656;28;20439;-84
2022/08/02 05:01:16;;;;;;;4.10;1.92;;;20.20;99.90;;;;;;7016774;28;20438;-86
2022/08/02 05:04:38;;;;;;;4.40;1.90;;;20.30;99.90;;;;;;7000341;28;21003;-84
2022/08/02 05:08:01;;;;;;;4.63;2.03;;;20.30;99.90;;;;;;6999358;28;20439;-85
2022/08/02 05:11:25;;;;;;;4.05;1.98;;;20.30;99.90;;;;;;6998171;28;20450;-84
2022/08/02 05:14:47;;;;;;;5.55;2.15;;;20.30;99.90;;;;;;6998183;28;20505;-84
2022/08/02 05:18:11;;;;;;;3.65;1.85;;;20.30;99.90;;;;;;6998627;28;20424;-84
2022/08/02 05:21:33;;;;;;;5.60;2.20;;;20.40;99.90;;;;;;6998328;28;20438;-84
2022/08/02 05:24:55;;;;;;;4.30;2.20;;;20.40;99.90;;;;;;6997950;28;20439;-85
2022/08/02 05:28:18;;;;;;;5.10;2.40;;;20.40;99.90;;;;;;6997823;28;20435;-84
2022/08/02 05:31:40;;;;;;;5.50;2.50;;;20.30;99.90;;;;;;6997507;28;20435;-84
2022/08/02 05:35:03;;;;;;;5.40;2.50;;;20.30;99.90;;;;;;6981482;28;20482;-85
2022/08/02 05:38:27;;;;;;;5.47;2.63;;;20.30;99.90;;;;;;6997906;28;20553;-86
2022/08/02 05:41:49;;;;;;;5.15;2.30;;;20.30;99.90;;;;;;7003868;28;20435;-84
2022/08/02 05:45:13;;;;;;;4.65;2.40;;;20.30;99.90;;;;;;7009284;28;20462;-84
2022/08/02 05:48:35;;;;;;;5.70;3.00;;;20.40;99.90;;;;;;6997345;28;20436;-85
2022/08/02 05:52:07;;;;;;;4.47;2.83;;;20.40;99.90;;;;;;6997807;28;20430;-84
2022/08/02 05:55:35;;;;;;;5.80;2.90;;;20.40;99.90;;;;;;6980450;28;20494;-85
2022/08/02 05:59:04;;;;;;;4.43;2.55;;;20.40;99.90;;;;;;6997018;28;20435;-85
2022/08/02 06:02:36;;;;;;;5.70;2.90;;;20.50;99.90;;;;;;6996645;28;20427;-80
2022/08/02 06:06:05;;;;;;;6.30;3.10;;;20.50;99.90;;;;;;6996556;28;20770;-81
2022/08/02 06:09:28;;;;;;;5.43;3.00;;;20.50;99.90;;;;;;6996594;28;20431;-80
2022/08/02 06:12:55;;;;;;;5.43;3.20;;;20.50;99.90;;;;;;6995976;28;20471;-80
2022/08/02 06:16:19;;;;;;;5.43;2.58;;;20.50;99.90;;;;;;6996987;28;20995;-85
2022/08/02 06:19:43;;;;;;;5.73;2.60;;;20.40;99.90;;;;;;6997022;28;20458;-84
2022/08/02 06:23:08;;;;;;;4.63;2.58;;;20.00;99.90;;;;;;6998078;28;20478;-86
2022/08/02 06:26:30;;;;;;;4.30;2.30;;;20.20;99.90;;;;;;6996849;28;20502;-84
2022/08/02 06:29:55;;;;;;;4.47;2.70;;;20.20;99.90;;;;;;7005306;28;20427;-86
2022/08/02 06:33:17;;;;;;;5.88;2.70;;;20.40;99.90;;;;;;6996920;28;20423;-85
2022/08/02 06:36:49;;;;;;;5.13;2.50;;;20.40;99.90;;;;;;6997072;28;20428;-86
2022/08/02 06:40:23;;;;;;;4.80;2.60;;;20.40;99.90;;;;;;6979105;28;20466;-85
2022/08/02 06:43:55;;;;;;;8.68;2.70;;;20.40;99.90;;;;;;6996700;28;20419;-85
2022/08/02 06:47:17;;;;;;;4.75;2.40;;;20.30;99.90;;;;;;6997667;28;20640;-85
2022/08/02 06:50:40;;;;;;;5.88;2.45;;;20.50;99.90;;;;;;6996887;28;20438;-86
2022/08/02 06:54:04;;;;;;;5.50;2.25;;;20.50;99.90;;;;;;6997221;28;20830;-86
2022/08/02 06:57:26;;;;;;;4.38;2.40;;;20.60;99.90;;;;;;6997394;28;20458;-87
2022/08/02 07:00:49;;;;;;;5.93;2.40;;;20.70;99.90;;;;;;6996571;28;20423;-82
2022/08/02 07:04:11;;;;;;;4.28;2.30;;;20.90;99.90;;;;;;7010055;28;20458;-82
2022/08/02 07:07:37;;;;;;;4.30;2.10;;;21.00;99.90;;;;;;7021135;28;20434;-88
2022/08/02 07:11:00;;;;;;;5.63;2.20;;;21.10;99.90;;;;;;7023200;28;20435;-86
2022/08/02 07:14:22;;;;;;;3.40;2.03;;;21.20;99.90;;;;;;7010928;28;20442;-90
2022/08/02 07:17:45;;;;;;;6.47;2.20;;;21.30;99.90;;;;;;7000100;28;20437;-88
2022/08/02 07:21:07;;;;;;;4.70;2.13;;;21.30;99.90;;;;;;7000052;28;20436;-91
2022/08/02 07:24:29;;;;;;;5.80;2.00;;;21.30;99.90;;;;;;6999257;28;20519;-90
2022/08/02 07:27:52;;;;;;;5.30;2.28;;;21.30;99.90;;;;;;7000897;28;20431;-89
2022/08/02 07:31:14;;;;;;;4.27;2.43;;;21.40;99.90;;;;;;6995257;28;20478;-86
2022/08/02 07:34:36;;;;;;;6.20;2.13;;;21.50;99.90;;;;;;6993362;28;20427;-86
2022/08/02 07:37:59;;;;;;;7.38;2.60;;;21.50;99.90;;;;;;6996262;28;20460;-88
2022/08/02 07:41:21;;;;;;;5.13;3.30;;;21.70;99.90;;;;;;6980976;28;20485;-88
2022/08/02 07:44:45;;;;;;;6.07;3.00;;;21.60;99.90;;;;;;7003480;28;20450;-89
2022/08/02 07:48:07;;;;;;;6.60;3.40;;;21.60;99.90;;;;;;7002773;28;20432;-91
2022/08/02 07:51:31;;;;;;;6.60;3.55;;;21.70;99.90;;;;;;7006418;28;20487;-90
2022/08/02 07:54:54;;;;;;;5.65;3.20;;;21.80;99.90;;;;;;7007665;28;20788;-87
2022/08/02 07:58:16;;;;;;;5.37;3.57;;;21.90;99.90;;;;;;7003930;28;20809;-89
2022/08/02 08:01:40;;;;;;;7.85;4.22;;;22.00;99.90;;;;;;7005019;28;20427;-88
2022/08/02 08:05:02;;;;;;;7.93;5.28;;;22.00;99.90;;;;;;7000001;28;20427;-85
2022/08/02 08:08:24;;;;;;;7.28;5.03;;;22.00;99.90;;;;;;7000583;28;20430;-87
2022/08/02 08:11:47;;;;;;;6.77;4.77;;;22.10;99.90;;;;;;7000726;28;20435;-86
2022/08/02 08:15:10;;;;;;;8.68;5.07;;;22.10;99.90;;;;;;7004713;28;20461;-85
2022/08/02 08:18:33;;;;;;;6.70;4.60;;;22.20;99.80;;;;;;7005535;28;20427;-87
2022/08/02 08:21:55;;;;;;;7.70;5.00;;;22.30;99.50;;;;;;7009583;28;20431;-85
2022/08/02 08:25:18;;;;;;;6.93;4.45;;;22.40;99.60;;;;;;7013550;28;20427;-86
2022/08/02 08:28:40;;;;;;;5.80;3.92;;;22.40;99.80;;;;;;7016376;28;20432;-87
2022/08/02 08:32:02;;;;;;;7.47;5.07;;;22.40;99.80;;;;;;7021275;28;20430;-86
2022/08/02 08:35:25;;;;;;;7.85;4.60;;;22.40;99.60;;;;;;7016318;28;20420;-85
2022/08/02 08:38:49;;;;;;;7.68;4.90;;;22.50;99.30;;;;;;7010177;28;20419;-87
2022/08/02 08:42:11;;;;;;;7.38;4.80;;;22.50;99.50;;;;;;7005310;28;20940;-78
2022/08/02 08:45:33;;;;;;;7.03;5.10;;;22.60;99.90;;;;;;6996087;28;20916;-78
2022/08/02 08:49:01;;;;;;;7.07;4.45;;;22.50;99.90;;;;;;7003168;28;20793;-84
2022/08/02 08:52:27;;;;;;;7.00;4.30;;;22.60;99.90;;;;;;7015330;28;20435;-85
2022/08/02 08:55:55;;;;;;;8.60;4.72;;;22.70;99.90;;;;;;7015955;28;20431;-83
2022/08/02 08:59:17;;;;;;;7.60;5.15;;;22.80;99.90;;;;;;6997920;28;20990;-84
2022/08/02 09:02:42;;;;;;;7.10;5.07;;;22.70;99.60;;;;;;6996993;28;20468;-83
2022/08/02 09:06:04;;;;;;;7.75;4.82;;;22.70;99.80;;;;;;6996243;28;20483;-85
2022/08/02 09:09:28;;;;;;;10.73;5.43;;;22.80;99.80;;;;;;6996262;28;20470;-85
2022/08/02 09:13:12;;;;;;;6.88;4.93;;;22.80;99.40;;;;;;6996101;28;20438;-84
2022/08/02 09:16:37;;;;;;;7.35;4.72;;;22.80;98.70;;;;;;6996369;28;20439;-83
2022/08/02 09:20:09;;;;;;;8.00;5.15;;;22.80;99.20;;;;;;6996989;28;20435;-87
2022/08/02 09:23:35;;;;;;;6.10;3.88;;;22.90;98.90;;;;;;6996688;28;20440;-84
2022/08/02 09:26:59;;;;;;;7.18;4.10;;;23.10;98.90;;;;;;6996258;28;20482;-85
2022/08/02 09:30:21;;;;;;;6.55;3.95;;;23.20;99.10;;;;;;6994788;28;20439;-82
2022/08/02 09:33:45;;;;;;;6.70;4.37;;;23.20;98.70;;;;;;6995011;28;20505;-80
2022/08/02 09:37:23;;;;;;;4.80;3.20;;;23.20;98.10;;;;;;6993903;28;20557;-83
2022/08/02 09:40:45;;;;;;;5.95;3.60;;;23.30;97.20;;;;;;6975734;28;20912;-82
2022/08/02 09:44:12;;;;;;;6.00;3.30;;;23.30;97.50;;;;;;6995160;28;20427;-80
2022/08/02 09:47:34;;;;;;;6.93;3.70;;;23.40;97.80;;;;;;6996443;28;20439;-81
2022/08/02 09:50:56;;;;;;;4.80;3.55;;;23.50;97.30;;;;;;6996783;28;20427;-82
2022/08/02 09:54:20;;;;;;;7.22;4.10;;;23.50;98.00;;;;;;6998791;28;20427;-82
2022/08/02 09:57:42;;;;;;;5.75;4.00;;;23.50;97.30;;;;;;6997602;28;20435;-85
2022/08/02 10:01:07;;;;;;;4.90;3.40;;;23.60;97.00;;;;;;7000687;28;20463;-79
2022/08/02 10:04:31;;;;;;;5.80;3.80;;;23.60;97.10;;;;;;7022387;28;20514;-82
2022/08/02 10:07:53;;;;;;;6.72;3.80;;;23.70;97.10;;;;;;7022007;28;20439;-81
2022/08/02 10:11:16;;;;;;;6.18;3.97;;;23.80;96.60;;;;;;7005921;28;20431;-81
2022/08/02 10:14:39;;;;;;;6.63;3.90;;;23.90;96.90;;;;;;7014322;28;20525;-83
2022/08/02 10:18:03;;;;;;;7.30;3.70;;;24.00;96.50;;;;;;7015823;28;20453;-81
2022/08/02 10:21:32;;;;;;;5.72;3.30;;;24.10;95.50;;;;;;7005600;28;20423;-83
2022/08/02 10:24:54;;;;;;;4.78;3.00;;;24.10;94.90;;;;;;6996925;28;20481;-82
2022/08/02 10:28:18;;;;;;;5.20;3.60;;;24.30;95.20;;;;;;6965961;28;20423;-81
2022/08/02 10:31:45;;;;;;;6.78;3.58;;;24.30;94.70;;;;;;7017958;28;20754;-82
2022/08/02 10:35:13;;;;;;;5.22;3.60;;;24.30;95.00;;;;;;7004634;28;20415;-82
2022/08/02 10:38:36;;;;;;;4.60;3.10;;;24.40;94.90;;;;;;6996447;28;20438;-82
2022/08/02 10:41:58;;;;;;;5.15;3.50;;;24.40;94.10;;;;;;6996162;28;20746;-82
2022/08/02 10:45:22;;;;;;;4.63;3.10;;;24.40;94.00;;;;;;6995981;28;20901;-82
2022/08/02 10:49:08;;;;;;;5.72;3.28;;;24.50;93.20;;;;;;6995831;28;20912;-83
2022/08/02 10:52:32;;;;;;;5.55;3.05;;;24.50;93.60;;;;;;6995898;28;20420;-84
2022/08/02 10:55:57;;;;;;;5.53;3.25;;;24.60;93.30;;;;;;6996464;28;20431;-83
2022/08/02 10:59:26;;;;;;;4.83;3.00;;;24.60;93.10;;;;;;6996375;28;20492;-85
2022/08/02 11:02:48;;;;;;;5.05;2.95;;;24.70;93.40;;;;;;6996798;28;20427;-85
2022/08/02 11:06:15;;;;;;;4.70;2.70;;;24.70;92.20;;;;;;6995873;28;20498;-84
2022/08/02 11:09:38;;;;;;;4.70;2.60;;;24.70;92.20;;;;;;6995162;28;20478;-86
2022/08/02 11:13:06;;;;;;;4.40;2.35;;;24.70;91.70;;;;;;6997114;28;20423;-85
2022/08/02 11:17:08;;;;;;;4.70;2.60;;;24.80;92.30;;;;;;7000439;28;20424;-84
2022/08/02 11:20:30;;;;;;;3.80;2.30;;;24.90;92.10;;;;;;7011244;28;20496;-83
2022/08/02 11:23:53;;;;;;;3.47;1.90;;;25.00;91.20;;;;;;7010207;28;20924;-85
2022/08/02 11:27:21;;;;;;;4.40;2.22;;;25.00;89.80;;;;;;7004192;28;20435;-84
2022/08/02 11:30:43;;;;;;;4.63;2.20;;;25.10;90.60;;;;;;7004385;28;20424;-83
2022/08/02 11:34:06;;;;;;;3.53;2.00;;;25.00;87.30;;;;;;7006342;28;20522;-85
2022/08/02 11:37:29;;;;;;;4.38;2.20;;;25.10;87.10;;;;;;7001050;28;20431;-83
2022/08/02 11:40:51;;;;;;;3.75;2.00;;;25.20;86.90;;;;;;7001201;28;20446;-84
2022/08/02 11:44:16;;;;;;;4.40;2.00;;;25.30;86.40;;;;;;7001155;28;20813;-84
2022/08/02 11:47:46;;;;;;;3.70;1.90;;;25.30;85.60;;;;;;7004437;28;20431;-84
2022/08/02 11:51:10;;;;;;;3.33;1.70;;;25.30;84.30;;;;;;6986202;28;20436;-84
2022/08/02 11:54:35;;;;;;;4.72;2.25;;;25.40;83.60;;;;;;7000901;28;20427;-84
2022/08/02 11:57:58;;;;;;;3.50;1.88;;;25.50;82.90;;;;;;7011881;28;20423;-83
2022/08/02 12:01:23;;;;;;;3.10;1.90;;;25.60;79.80;;;;;;7006839;28;20446;-84
2022/08/02 12:04:53;;;;;;;3.85;1.90;;;25.60;80.30;;;;;;7000406;28;20894;-82
2022/08/02 12:08:15;;;;;;;3.80;2.00;;;25.60;81.20;;;;;;7000191;28;20501;-83
2022/08/02 12:11:37;;;;;;;4.05;1.80;;;25.80;83.10;;;;;;7000306;28;20434;-82
2022/08/02 12:15:00;;;;;;;3.75;1.63;;;25.90;77.30;;;;;;6999830;28;20423;-82
2022/08/02 12:22:17;;;;;;;4.20;1.80;;;26.10;74.20;;;;;;6999955;28;20424;-84
2022/08/02 12:25:40;;;;;;;3.30;1.70;;;26.30;74.40;;;;;;6999724;28;20431;-79
2022/08/02 12:29:02;;;;;;;4.20;1.90;;;26.10;75.30;;;;;;6998796;28;20419;-77
2022/08/02 12:32:25;;;;;;;3.40;1.80;;;26.20;74.50;;;;;;6999359;28;20419;-78
2022/08/02 12:35:49;;;;;;;4.27;1.97;;;26.10;71.00;;;;;;6999437;28;20427;-77
2022/08/02 12:39:13;;;;;;;3.30;1.65;;;26.20;73.30;;;;;;7000451;28;20420;-78
2022/08/02 12:42:47;;;;;;;3.20;1.80;;;26.40;74.20;;;;;;6996501;28;21209;-78
2022/08/02 12:46:17;;;;;;;3.58;1.83;;;26.50;72.50;;;;;;6996998;28;20432;-79
2022/08/02 12:49:39;;;;;;;3.47;1.80;;;26.60;74.40;;;;;;6998221;28;20770;-77
2022/08/02 12:53:09;;;;;;;3.55;1.80;;;26.70;72.60;;;;;;6998106;28;20476;-79
2022/08/02 12:56:33;;;;;;;3.45;1.80;;;26.80;72.20;;;;;;6995629;28;20430;-78
2022/08/02 12:59:55;;;;;;;3.08;1.55;;;26.90;71.20;;;;;;6993338;28;20434;-78
2022/08/02 13:03:18;;;;;;;2.95;1.70;;;27.10;71.80;;;;;;6995329;28;20431;-78
2022/08/02 13:06:41;;;;;;;3.80;1.90;;;27.10;70.70;;;;;;6994769;28;20486;-77
2022/08/02 13:10:05;;;;;;;3.80;1.70;;;27.20;70.60;;;;;;6993717;28;20424;-77
2022/08/02 13:13:27;;;;;;;3.65;1.70;;;27.30;69.40;;;;;;6995246;28;20435;-79
2022/08/02 13:16:50;;;;;;;3.17;1.63;;;27.40;68.70;;;;;;6995312;28;20459;-78
2022/08/02 13:20:14;;;;;;;4.70;1.80;;;27.30;68.30;;;;;;6994501;28;20427;-76
2022/08/02 13:23:36;;;;;;;2.90;1.58;;;27.30;67.50;;;;;;6994808;28;20431;-80
2022/08/02 13:27:01;;;;;;;4.15;1.80;;;27.70;68.40;;;;;;6993920;28;20435;-77
2022/08/02 13:30:23;;;;;;;4.05;1.90;;;27.90;68.30;;;;;;6995146;28;20837;-78
2022/08/02 13:33:45;;;;;;;3.60;1.80;;;28.00;68.00;;;;;;6995367;28;21025;-77
2022/08/02 13:37:07;;;;;;;3.60;1.80;;;28.00;67.40;;;;;;6994698;28;20426;-77
2022/08/02 13:40:29;;;;;;;5.13;2.00;;;28.00;66.30;;;;;;6993870;28;20423;-79
2022/08/02 13:43:53;;;;;;;3.35;1.90;;;28.20;68.10;;;;;;6994269;28;20465;-77
2022/08/02 13:47:15;;;;;;;4.28;1.90;;;28.30;66.40;;;;;;6997997;28;20451;-80
2022/08/02 13:50:37;;;;;;;3.97;1.60;;;28.40;65.40;;;;;;6996652;28;20427;-77
2022/08/02 13:53:59;;;;;;;3.93;1.80;;;28.40;65.50;;;;;;7004311;28;20446;-79
2022/08/02 13:57:21;;;;;;;4.10;1.80;;;28.50;64.30;;;;;;7015348;28;20435;-79
2022/08/02 14:00:45;;;;;;;4.20;1.90;;;28.60;65.70;;;;;;7012381;28;20431;-79
2022/08/02 14:04:07;;;;;;;3.38;1.80;;;28.80;65.60;;;;;;7007869;28;20438;-78
2022/08/02 14:07:29;;;;;;;4.53;1.90;;;28.90;64.90;;;;;;7012769;28;20443;-80
2022/08/02 14:10:52;;;;;;;4.07;2.00;;;29.00;64.00;;;;;;7014459;28;20439;-79
2022/08/02 14:14:14;;;;;;;3.45;2.00;;;28.70;63.30;;;;;;7013494;28;20502;-78
2022/08/02 14:17:37;;;;;;;4.35;1.90;;;28.70;63.30;;;;;;7023428;28;20427;-79
2022/08/02 14:20:59;;;;;;;7.38;4.32;;;28.70;63.60;;;;;;7007880;28;20958;-79
2022/08/02 14:24:22;;;;;;;3.97;2.17;;;28.80;64.70;;;;;;7010428;28;20439;-79
2022/08/02 14:27:44;;;;;;;4.03;1.90;;;28.90;64.00;;;;;;7020573;28;20450;-78
2022/08/02 14:31:06;;;;;;;4.72;1.90;;;29.10;64.90;;;;;;7020476;28;20428;-80
2022/08/02 14:34:30;;;;;;;4.75;1.88;;;29.00;64.70;;;;;;7017241;28;20431;-79
2022/08/02 14:37:52;;;;;;;3.30;1.85;;;29.00;63.00;;;;;;7002401;28;20439;-80
2022/08/02 14:41:14;;;;;;;3.40;2.15;;;28.80;63.40;;;;;;6996267;28;20436;-79
2022/08/02 14:44:37;;;;;;;3.33;2.10;;;28.80;62.70;;;;;;7015337;28;20453;-78
2022/08/02 14:47:59;;;;;;;3.47;1.98;;;28.80;63.60;;;;;;7003633;28;20442;-80
2022/08/02 14:51:22;;;;;;;5.35;2.10;;;28.90;63.50;;;;;;6995449;28;20435;-81
2022/08/02 14:54:45;;;;;;;3.60;2.05;;;29.00;64.20;;;;;;7011516;28;20443;-79
2022/08/02 14:58:07;;;;;;;5.18;2.25;;;29.10;63.20;;;;;;7008065;28;20435;-80
2022/08/02 15:01:30;;;;;;;3.97;2.33;;;29.20;63.40;;;;;;7018988;28;20434;-80
2022/08/02 15:04:52;;;;;;;5.28;2.30;;;29.30;63.00;;;;;;7021852;28;20415;-81
2022/08/02 15:08:15;;;;;;;4.20;2.22;;;29.50;62.40;;;;;;7007492;28;20488;-81
2022/08/02 15:11:37;;;;;;;5.22;2.35;;;29.70;63.10;;;;;;7011377;28;20446;-78
2022/08/02 15:14:59;;;;;;;4.20;2.40;;;29.80;62.30;;;;;;6993488;28;20880;-77
2022/08/02 15:18:21;;;;;;;4.45;2.35;;;29.90;61.80;;;;;;7010282;28;20430;-79
2022/08/02 15:21:44;;;;;;;3.40;2.15;;;29.80;61.80;;;;;;7009076;28;20421;-80
2022/08/02 15:25:08;;;;;;;4.20;2.30;;;29.80;61.10;;;;;;6993018;28;20465;-78
2022/08/02 15:28:30;;;;;;;6.25;2.55;;;30.00;60.90;;;;;;7001543;28;20437;-80
2022/08/02 15:31:52;;;;;;;4.83;2.30;;;30.00;61.20;;;;;;6998324;28;20462;-78
2022/08/02 15:35:14;;;;;;;4.53;2.33;;;30.00;61.00;;;;;;7007955;28;20443;-77
2022/08/02 15:38:37;;;;;;;4.83;2.30;;;30.10;60.80;;;;;;7015475;28;20455;-79
2022/08/02 15:42:00;;;;;;;4.95;2.25;;;30.40;62.10;;;;;;6995050;28;20493;-77
2022/08/02 15:45:24;;;;;;;4.75;2.42;;;30.50;60.40;;;;;;6990672;28;20450;-78
2022/08/02 15:48:46;;;;;;;4.97;2.30;;;30.50;59.60;;;;;;6990906;28;20843;-78
2022/08/02 15:52:08;;;;;;;3.67;2.13;;;30.60;59.80;;;;;;6990565;28;20439;-78
2022/08/02 15:55:30;;;;;;;3.70;2.40;;;30.50;59.30;;;;;;6995346;28;20431;-80
2022/08/02 15:58:54;;;;;;;4.47;2.47;;;30.70;59.40;;;;;;6990358;28;20454;-79
2022/08/02 16:02:17;;;;;;;3.87;2.30;;;30.60;60.00;;;;;;6989844;28;20446;-80
2022/08/02 16:05:39;;;;;;;4.72;2.38;;;30.70;59.20;;;;;;7002701;28;20430;-80
2022/08/02 16:09:02;;;;;;;3.83;2.20;;;30.80;59.00;;;;;;7005863;28;20450;-80
2022/08/02 16:12:24;;;;;;;9.07;6.40;;;31.00;57.70;;;;;;7008551;28;20435;-77
2022/08/02 16:15:47;;;;;;;10.90;8.18;;;31.20;60.30;;;;;;7002536;28;20436;-78
2022/08/02 16:19:09;;;;;;;4.63;2.90;;;31.30;58.70;;;;;;6996101;28;20434;-77
2022/08/02 16:22:31;;;;;;;4.43;2.30;;;31.50;59.60;;;;;;6995260;28;20439;-76
2022/08/02 16:25:53;;;;;;;4.70;2.40;;;31.80;57.40;;;;;;6994505;28;20467;-77
2022/08/02 16:29:16;;;;;;;5.22;2.40;;;32.30;57.00;;;;;;6995379;28;20444;-78
2022/08/02 16:32:40;;;;;;;4.32;2.10;;;32.70;54.50;;;;;;6994092;28;20488;-79
2022/08/02 16:36:02;;;;;;;4.90;2.40;;;32.70;54.40;;;;;;6995407;28;20466;-78
2022/08/02 16:39:24;;;;;;;4.70;2.10;;;32.00;55.90;;;;;;6993617;28;20479;-79
2022/08/02 16:42:46;;;;;;;4.50;2.38;;;32.00;56.20;;;;;;6993375;28;20920;-79
2022/08/02 16:46:08;;;;;;;4.10;2.35;;;31.80;56.90;;;;;;6992250;28;20440;-78
2022/08/02 16:49:32;;;;;;;5.05;2.50;;;31.80;56.10;;;;;;6995286;28;20805;-80
2022/08/02 16:52:54;;;;;;;4.57;2.35;;;31.90;56.30;;;;;;7000293;28;20538;-79
2022/08/02 16:56:16;;;;;;;3.90;2.30;;;31.90;56.70;;;;;;6968533;28;20440;-78
2022/08/02 16:59:38;;;;;;;4.40;2.23;;;31.80;56.80;;;;;;6982185;28;20492;-78
2022/08/02 17:03:00;;;;;;;4.57;2.17;;;31.90;56.40;;;;;;6993533;28;21060;-77
2022/08/02 17:06:24;;;;;;;4.30;2.28;;;32.00;56.50;;;;;;7018139;28;20441;-80
2022/08/02 17:09:46;;;;;;;5.65;2.30;;;32.20;56.40;;;;;;7006512;28;20505;-78
2022/08/02 17:13:09;;;;;;;4.72;2.20;;;32.40;55.50;;;;;;6993407;28;20442;-80
2022/08/02 17:16:31;;;;;;;3.92;2.00;;;32.50;55.00;;;;;;6987476;28;20494;-78
2022/08/02 17:19:53;;;;;;;3.95;2.05;;;32.60;55.50;;;;;;6992617;28;20465;-78
2022/08/02 17:23:17;;;;;;;4.80;2.20;;;32.60;55.10;;;;;;6987343;28;20817;-77
2022/08/02 17:26:39;;;;;;;3.78;2.20;;;32.70;55.20;;;;;;6987106;28;20927;-77
2022/08/02 17:30:02;;;;;;;4.07;2.00;;;32.70;53.50;;;;;;6991542;28;20440;-83
2022/08/02 17:33:24;;;;;;;4.03;2.10;;;32.60;54.40;;;;;;6986951;28;20441;-79
2022/08/02 17:36:46;;;;;;;4.38;2.30;;;32.70;55.30;;;;;;6989324;28;20920;-80
2022/08/02 17:40:11;;;;;;;4.30;2.20;;;32.60;55.10;;;;;;6990401;28;20438;-77
2022/08/02 17:43:33;;;;;;;3.95;2.10;;;32.20;54.90;;;;;;6990848;28;20428;-77
2022/08/02 17:46:55;;;;;;;3.83;2.10;;;32.20;55.70;;;;;;6990472;28;20915;-78
2022/08/02 17:50:17;;;;;;;4.72;2.42;;;32.20;56.30;;;;;;6990969;28;20439;-77
2022/08/02 17:53:39;;;;;;;4.00;2.10;;;32.10;55.90;;;;;;6999487;28;20488;-80
2022/08/02 17:57:03;;;;;;;4.85;2.28;;;32.00;56.20;;;;;;7007568;28;20871;-76
2022/08/02 18:00:25;;;;;;;4.43;2.30;;;31.80;57.70;;;;;;6998235;28;20500;-78
2022/08/02 18:03:49;;;;;;;4.88;2.30;;;31.70;58.40;;;;;;7007432;28;20439;-78